Time;durP1;ratioP1;P1;durP2;ratioP2;P2;SDS_P1;SDS_P2;PMS_P1;PMS_P2;Temp;Humidity;BMP_temperature;BMP_pressure;BME280_temperature;BME280_humidity;BME280_pressure;Samples;Min_cycle;Max_cycle;Signal;HPM_P1;HPM_P2
2021/07/01 00:01:57;;;;;;;17.67;4.78;;;16.50;99.90;;;;;;5065233;28;20177;-63
2021/07/01 00:04:23;;;;;;;11.77;5.32;;;16.50;99.90;;;;;;5057590;28;20175;-62
2021/07/01 00:06:49;;;;;;;11.50;5.13;;;16.50;99.90;;;;;;5057634;28;20676;-62
2021/07/01 00:09:17;;;;;;;15.82;6.10;;;16.50;99.90;;;;;;5057639;28;20189;-62
2021/07/01 00:11:45;;;;;;;9.50;4.55;;;16.40;99.90;;;;;;5060733;28;20205;-62
2021/07/01 00:14:11;;;;;;;10.77;5.03;;;16.40;99.90;;;;;;5064859;28;20173;-62
2021/07/01 00:16:38;;;;;;;11.35;4.80;;;16.40;99.90;;;;;;5060608;28;20691;-62
2021/07/01 00:19:04;;;;;;;11.52;4.90;;;16.40;99.90;;;;;;5066576;28;20205;-61
2021/07/01 00:21:30;;;;;;;8.13;4.50;;;16.40;99.90;;;;;;5060489;28;20179;-61
2021/07/01 00:23:56;;;;;;;10.25;5.18;;;16.40;99.90;;;;;;5062025;28;20183;-61
2021/07/01 00:26:22;;;;;;;10.13;4.68;;;16.40;99.90;;;;;;5057890;28;20210;-61
2021/07/01 00:28:48;;;;;;;12.50;6.55;;;16.40;99.90;;;;;;5050675;28;20198;-61
2021/07/01 00:31:14;;;;;;;10.75;4.60;;;16.30;99.90;;;;;;5057810;28;20635;-61
2021/07/01 00:33:41;;;;;;;9.32;5.88;;;16.30;99.90;;;;;;5060653;28;20209;-62
2021/07/01 00:36:07;;;;;;;10.75;5.82;;;16.30;99.90;;;;;;5061810;28;20206;-61
2021/07/01 00:38:33;;;;;;;11.82;5.38;;;16.30;99.90;;;;;;5054341;28;20202;-60
2021/07/01 00:40:59;;;;;;;12.55;5.93;;;16.30;99.90;;;;;;5051775;28;20166;-62
2021/07/01 00:43:25;;;;;;;10.43;6.10;;;16.20;99.90;;;;;;5067861;28;20171;-60
2021/07/01 00:45:51;;;;;;;12.05;6.35;;;16.20;99.90;;;;;;5069420;28;20825;-61
2021/07/01 00:48:18;;;;;;;12.48;5.47;;;16.20;99.90;;;;;;5066013;28;20178;-61
2021/07/01 00:50:45;;;;;;;10.48;5.05;;;16.10;99.90;;;;;;5060020;28;20184;-61
2021/07/01 00:53:11;;;;;;;13.73;5.95;;;16.10;99.90;;;;;;5055038;28;25076;-61
2021/07/01 00:55:37;;;;;;;7.35;4.45;;;16.00;99.90;;;;;;5058298;28;20190;-61
2021/07/01 00:58:07;;;;;;;9.13;5.13;;;16.00;99.90;;;;;;5054368;28;20221;-61
2021/07/01 01:03:05;;;;;;;13.65;5.25;;;15.90;99.90;;;;;;5069515;28;20159;-61
2021/07/01 01:05:31;;;;;;;11.77;5.10;;;15.90;99.90;;;;;;5065324;28;20962;-61
2021/07/01 01:07:57;;;;;;;11.70;5.57;;;15.80;99.90;;;;;;5073032;28;20630;-62
2021/07/01 01:10:23;;;;;;;9.65;5.20;;;15.80;99.90;;;;;;5062062;28;20189;-62
2021/07/01 01:12:49;;;;;;;11.13;4.88;;;15.80;99.90;;;;;;5056503;28;20209;-62
2021/07/01 01:15:15;;;;;;;10.27;4.82;;;15.70;99.90;;;;;;5066986;28;20178;-61
2021/07/01 01:17:43;;;;;;;12.38;5.15;;;15.70;99.90;;;;;;5060569;28;20212;-62
2021/07/01 01:20:09;;;;;;;14.00;5.50;;;15.70;99.90;;;;;;5052944;28;20193;-62
2021/07/01 01:22:35;;;;;;;14.43;5.15;;;15.70;99.90;;;;;;5064528;28;20182;-62
2021/07/01 01:25:02;;;;;;;10.88;5.10;;;15.60;99.90;;;;;;5070445;28;20536;-62
2021/07/01 01:27:28;;;;;;;14.27;5.07;;;15.60;99.90;;;;;;5049973;28;20194;-62
2021/07/01 01:29:54;;;;;;;13.02;5.32;;;15.60;99.90;;;;;;5069358;28;20174;-62
2021/07/01 01:32:20;;;;;;;10.65;4.90;;;15.50;99.90;;;;;;5069838;28;20197;-63
2021/07/01 01:34:46;;;;;;;16.48;7.50;;;15.50;99.90;;;;;;5052582;28;20183;-63
2021/07/01 01:37:12;;;;;;;15.82;6.65;;;15.50;99.90;;;;;;5064290;28;20201;-62
2021/07/01 01:39:39;;;;;;;10.32;5.07;;;15.50;99.90;;;;;;5064215;28;20236;-62
2021/07/01 01:42:05;;;;;;;11.55;5.25;;;15.40;99.90;;;;;;5063042;28;20178;-62
2021/07/01 01:44:31;;;;;;;13.57;4.97;;;15.40;99.90;;;;;;5060807;28;20186;-62
2021/07/01 01:46:57;;;;;;;9.70;5.03;;;15.40;99.90;;;;;;5061926;28;20179;-61
2021/07/01 01:49:23;;;;;;;13.95;5.65;;;15.30;99.90;;;;;;5064546;28;20182;-61
2021/07/01 01:51:49;;;;;;;12.50;6.80;;;15.40;99.90;;;;;;5062136;28;20192;-61
2021/07/01 01:54:15;;;;;;;15.23;5.60;;;15.30;99.90;;;;;;5052112;28;20186;-61
2021/07/01 01:56:47;;;;;;;11.55;5.50;;;15.30;99.90;;;;;;5065344;28;20689;-61
2021/07/01 01:59:13;;;;;;;12.35;5.85;;;15.30;99.90;;;;;;5060878;28;20179;-61
2021/07/01 02:01:40;;;;;;;13.88;5.28;;;15.20;99.90;;;;;;5062430;28;20196;-61
2021/07/01 02:04:06;;;;;;;10.55;5.22;;;15.20;99.90;;;;;;5064307;28;20174;-62
2021/07/01 02:06:34;;;;;;;13.60;5.55;;;15.20;99.90;;;;;;5060219;28;20167;-62
2021/07/01 02:09:03;;;;;;;12.32;6.60;;;15.20;99.90;;;;;;5062730;28;20198;-63
2021/07/01 02:11:29;;;;;;;18.35;5.25;;;15.10;99.90;;;;;;5064360;28;20190;-62
2021/07/01 02:13:55;;;;;;;14.02;5.75;;;15.10;99.90;;;;;;5056850;28;20631;-62
2021/07/01 02:16:21;;;;;;;10.25;5.10;;;15.10;99.90;;;;;;5067704;28;20209;-61
2021/07/01 02:18:49;;;;;;;20.77;5.18;;;15.10;99.90;;;;;;5067972;28;20181;-61
2021/07/01 02:21:15;;;;;;;12.30;5.60;;;15.10;99.90;;;;;;5062663;28;20182;-61
2021/07/01 02:23:41;;;;;;;11.73;5.95;;;15.10;99.90;;;;;;5061897;28;20177;-61
2021/07/01 02:26:07;;;;;;;13.80;6.75;;;15.00;99.90;;;;;;5061716;28;20179;-62
2021/07/01 02:28:33;;;;;;;14.18;5.20;;;15.00;99.90;;;;;;5053747;28;20178;-61
2021/07/01 02:30:59;;;;;;;17.80;5.70;;;15.00;99.90;;;;;;5063106;28;20185;-61
2021/07/01 02:33:26;;;;;;;10.05;4.22;;;15.00;99.90;;;;;;5063897;28;20193;-61
2021/07/01 02:35:52;;;;;;;10.80;5.03;;;15.00;99.90;;;;;;5058134;28;20178;-61
2021/07/01 02:38:19;;;;;;;14.25;6.18;;;15.00;99.90;;;;;;5062959;28;20214;-61
2021/07/01 02:40:45;;;;;;;11.88;4.68;;;15.00;99.90;;;;;;5066720;28;20171;-61
2021/07/01 02:43:11;;;;;;;14.57;4.93;;;15.00;99.90;;;;;;5054057;28;20182;-61
2021/07/01 02:45:37;;;;;;;10.98;4.68;;;15.00;99.90;;;;;;5065625;28;20618;-62
2021/07/01 02:48:04;;;;;;;12.82;5.57;;;15.00;99.90;;;;;;5060295;28;20182;-61
2021/07/01 02:50:30;;;;;;;12.27;4.80;;;15.00;99.90;;;;;;5059999;28;20167;-62
2021/07/01 02:52:56;;;;;;;11.50;4.20;;;15.00;99.90;;;;;;5060651;28;20537;-61
2021/07/01 02:55:22;;;;;;;8.88;4.10;;;15.00;99.90;;;;;;5067519;28;20189;-62
2021/07/01 02:57:48;;;;;;;9.73;5.18;;;15.00;99.90;;;;;;5063345;28;20218;-63
2021/07/01 03:00:15;;;;;;;7.95;3.47;;;15.00;99.90;;;;;;5063399;28;20191;-61
2021/07/01 03:02:41;;;;;;;8.43;4.95;;;15.10;99.90;;;;;;5050719;28;20178;-61
2021/07/01 03:05:07;;;;;;;9.00;4.82;;;15.10;99.70;;;;;;5059557;28;20163;-61
2021/07/01 03:07:34;;;;;;;11.00;4.15;;;15.10;99.80;;;;;;5065721;28;20189;-61
2021/07/01 03:10:00;;;;;;;7.70;4.85;;;15.10;99.50;;;;;;5066177;28;20202;-61
2021/07/01 03:12:26;;;;;;;9.30;3.78;;;15.10;99.30;;;;;;5064485;28;20213;-60
2021/07/01 03:14:52;;;;;;;11.07;3.70;;;15.20;99.40;;;;;;5053031;28;20182;-62
2021/07/01 03:17:18;;;;;;;9.43;3.75;;;15.20;99.10;;;;;;5051418;28;20211;-62
2021/07/01 03:19:44;;;;;;;6.43;3.25;;;15.20;99.20;;;;;;5065754;28;20174;-61
2021/07/01 03:22:11;;;;;;;7.57;3.50;;;15.20;99.10;;;;;;5065931;28;20186;-61
2021/07/01 03:24:37;;;;;;;5.70;3.35;;;15.20;99.00;;;;;;5063745;28;20171;-61
2021/07/01 03:27:04;;;;;;;5.30;3.03;;;15.20;99.00;;;;;;5066863;28;20189;-61
2021/07/01 03:29:30;;;;;;;7.20;3.42;;;15.20;98.90;;;;;;5069904;28;20181;-60
2021/07/01 03:31:56;;;;;;;8.95;3.38;;;15.20;98.90;;;;;;5055848;28;20178;-62
2021/07/01 03:34:23;;;;;;;6.57;3.05;;;15.20;98.80;;;;;;5059656;28;20583;-61
2021/07/01 03:36:49;;;;;;;9.30;3.33;;;15.20;98.70;;;;;;5060182;28;20204;-62
2021/07/01 03:39:15;;;;;;;8.20;3.90;;;15.30;98.80;;;;;;5056928;28;20218;-61
2021/07/01 03:41:41;;;;;;;11.50;4.28;;;15.30;98.90;;;;;;5050836;28;20194;-60
2021/07/01 03:44:09;;;;;;;7.78;3.53;;;15.30;98.60;;;;;;5066228;28;20174;-60
2021/07/01 03:46:35;;;;;;;11.75;3.60;;;15.30;98.50;;;;;;5036939;28;20166;-60
2021/07/01 03:49:01;;;;;;;6.40;3.40;;;15.30;98.40;;;;;;5062399;28;20174;-60
2021/07/01 03:51:27;;;;;;;7.82;3.75;;;15.30;98.30;;;;;;5064486;28;20186;-60
2021/07/01 03:53:53;;;;;;;8.75;3.50;;;15.20;98.30;;;;;;5065314;28;20174;-60
2021/07/01 03:56:19;;;;;;;7.45;3.20;;;15.20;98.20;;;;;;5061763;28;20166;-61
2021/07/01 03:58:45;;;;;;;9.43;3.55;;;15.20;98.20;;;;;;5066556;28;20193;-61
2021/07/01 04:01:11;;;;;;;8.02;3.22;;;15.20;98.00;;;;;;5061879;28;20224;-61
2021/07/01 04:03:37;;;;;;;6.63;3.10;;;15.20;97.90;;;;;;5050307;28;20190;-61
2021/07/01 04:06:03;;;;;;;8.68;3.28;;;15.20;98.10;;;;;;5063135;28;20174;-61
2021/07/01 04:08:29;;;;;;;9.23;3.63;;;15.30;97.60;;;;;;5063338;28;20175;-61
2021/07/01 04:10:56;;;;;;;6.70;3.40;;;15.30;97.50;;;;;;5063445;28;20587;-60
2021/07/01 04:13:22;;;;;;;5.53;2.92;;;15.30;97.20;;;;;;5064860;28;20174;-61
2021/07/01 04:15:48;;;;;;;6.40;2.70;;;15.40;96.90;;;;;;5068325;28;20185;-61
2021/07/01 04:18:14;;;;;;;4.95;2.80;;;15.30;96.20;;;;;;5067439;28;20209;-60
2021/07/01 04:20:40;;;;;;;6.55;2.70;;;15.40;96.50;;;;;;5066784;28;20197;-60
2021/07/01 04:23:07;;;;;;;5.28;2.45;;;15.40;95.40;;;;;;5067067;28;20193;-60
2021/07/01 04:25:34;;;;;;;6.78;2.75;;;15.40;95.00;;;;;;5068720;28;20193;-60
2021/07/01 04:28:00;;;;;;;7.75;2.75;;;15.40;94.90;;;;;;5070449;28;20623;-60
2021/07/01 04:30:26;;;;;;;8.52;3.05;;;15.40;94.80;;;;;;5067115;28;20198;-61
2021/07/01 04:32:52;;;;;;;9.70;2.45;;;15.40;94.80;;;;;;5066791;28;20169;-60
2021/07/01 04:35:18;;;;;;;3.63;1.95;;;15.50;94.30;;;;;;5070812;28;20186;-61
2021/07/01 04:37:44;;;;;;;5.22;2.10;;;15.60;94.10;;;;;;5067463;28;20198;-60
2021/07/01 04:40:11;;;;;;;8.43;2.40;;;15.70;93.90;;;;;;5067825;28;20304;-60
2021/07/01 04:42:37;;;;;;;5.68;2.22;;;15.80;93.20;;;;;;5071830;28;20535;-61
2021/07/01 04:45:04;;;;;;;7.35;1.95;;;15.90;93.00;;;;;;5069793;28;20174;-60
2021/07/01 04:47:32;;;;;;;6.45;2.28;;;15.80;93.00;;;;;;5070558;28;20678;-60
2021/07/01 04:49:58;;;;;;;8.60;2.42;;;15.90;92.80;;;;;;5065569;28;20175;-60
2021/07/01 04:52:24;;;;;;;4.78;1.88;;;15.90;92.70;;;;;;5070060;28;20543;-60
2021/07/01 04:54:50;;;;;;;4.75;2.40;;;15.80;92.40;;;;;;5070072;28;20544;-59
2021/07/01 04:57:16;;;;;;;4.43;2.10;;;15.80;92.60;;;;;;5060927;28;20214;-60
2021/07/01 04:59:42;;;;;;;4.18;2.00;;;15.70;92.30;;;;;;5053589;28;20680;-60
2021/07/01 05:02:08;;;;;;;4.63;2.03;;;15.60;92.50;;;;;;5068718;28;20178;-61
2021/07/01 05:04:35;;;;;;;6.22;2.17;;;15.60;93.10;;;;;;5062000;28;20627;-60
2021/07/01 05:07:01;;;;;;;7.85;2.05;;;15.40;93.20;;;;;;5070376;28;20185;-60
2021/07/01 05:09:27;;;;;;;5.07;2.13;;;15.40;93.20;;;;;;5069501;28;20178;-60
2021/07/01 05:11:53;;;;;;;4.60;2.13;;;15.40;93.10;;;;;;5067862;28;20651;-60
2021/07/01 05:14:19;;;;;;;10.70;3.10;;;15.40;93.40;;;;;;5066368;28;20189;-60
2021/07/01 05:16:45;;;;;;;6.60;2.35;;;15.40;93.50;;;;;;5071418;28;20181;-59
2021/07/01 05:19:11;;;;;;;10.18;2.33;;;15.40;93.40;;;;;;5069714;28;20540;-59
2021/07/01 05:21:37;;;;;;;4.22;1.90;;;15.30;93.50;;;;;;5064389;28;20182;-60
2021/07/01 05:24:04;;;;;;;5.50;2.50;;;15.40;93.50;;;;;;5053919;28;20536;-60
2021/07/01 05:26:30;;;;;;;5.22;2.65;;;15.50;93.50;;;;;;5070420;28;20260;-61
2021/07/01 05:28:56;;;;;;;167.60;9.63;;;15.70;93.20;;;;;;5068884;28;20178;-60
2021/07/01 05:31:22;;;;;;;4.20;2.10;;;15.80;93.00;;;;;;5054843;28;20174;-60
2021/07/01 05:33:48;;;;;;;5.38;2.50;;;16.00;92.70;;;;;;5068968;28;20399;-61
2021/07/01 05:36:14;;;;;;;8.95;2.65;;;16.00;92.50;;;;;;5071077;28;20397;-61
2021/07/01 05:38:40;;;;;;;7.70;2.78;;;16.10;92.50;;;;;;5072349;28;20413;-60
2021/07/01 05:41:06;;;;;;;7.35;2.60;;;16.20;92.40;;;;;;5071134;28;20385;-60
2021/07/01 05:43:33;;;;;;;6.03;2.55;;;16.30;92.20;;;;;;5069690;28;20386;-60
2021/07/01 05:45:59;;;;;;;6.85;2.58;;;16.30;92.20;;;;;;5071984;28;20374;-60
2021/07/01 05:48:26;;;;;;;6.22;2.53;;;16.30;92.10;;;;;;5071999;28;20394;-63
2021/07/01 05:50:59;;;;;;;8.38;2.80;;;16.30;91.70;;;;;;5071843;28;20410;-61
2021/07/01 05:53:27;;;;;;;20.83;3.80;;;16.50;92.00;;;;;;5072178;28;20870;-60
2021/07/01 05:55:53;;;;;;;451.45;39.35;;;16.70;91.40;;;;;;5071766;28;20739;-61
2021/07/01 05:58:20;;;;;;;6.60;2.30;;;17.00;91.40;;;;;;5071651;28;20410;-61
2021/07/01 06:00:46;;;;;;;8.60;2.60;;;17.00;90.60;;;;;;5072141;28;20389;-60
2021/07/01 06:03:12;;;;;;;6.93;2.37;;;16.90;91.00;;;;;;5070384;28;20417;-60
2021/07/01 06:05:38;;;;;;;15.82;3.20;;;17.00;91.10;;;;;;5070591;28;20752;-62
2021/07/01 06:08:05;;;;;;;4.47;2.35;;;17.10;91.20;;;;;;5053934;28;20405;-61
2021/07/01 06:10:31;;;;;;;7.90;2.40;;;17.00;91.00;;;;;;5068306;28;20386;-61
2021/07/01 06:12:57;;;;;;;11.52;2.83;;;16.90;90.90;;;;;;5036855;28;20379;-61
2021/07/01 06:15:24;;;;;;;8.45;2.63;;;16.90;91.20;;;;;;5027238;28;20376;-61
2021/07/01 06:17:50;;;;;;;5.67;2.20;;;16.90;91.20;;;;;;5046868;28;20409;-61
2021/07/01 06:20:16;;;;;;;5.22;2.33;;;17.00;91.20;;;;;;5070899;28;20385;-60
2021/07/01 06:22:42;;;;;;;6.30;2.20;;;17.10;91.20;;;;;;5069994;28;20481;-61
2021/07/01 06:25:08;;;;;;;5.90;1.80;;;17.40;91.40;;;;;;5054144;28;20378;-61
2021/07/01 06:27:38;;;;;;;4.38;2.00;;;17.60;90.50;;;;;;5053729;28;20405;-60
2021/07/01 06:30:21;;;;;;;10.95;2.20;;;17.70;90.70;;;;;;5071067;28;20402;-61
2021/07/01 06:32:52;;;;;;;7.18;2.60;;;17.90;90.30;;;;;;5071924;28;20397;-60
2021/07/01 06:35:20;;;;;;;7.38;2.20;;;18.30;90.20;;;;;;5067399;28;20401;-61
2021/07/01 06:37:47;;;;;;;5.65;2.00;;;18.40;89.20;;;;;;5071005;28;20794;-61
2021/07/01 06:40:13;;;;;;;6.40;2.00;;;18.40;89.00;;;;;;5071206;28;20401;-61
2021/07/01 06:42:47;;;;;;;4.60;1.85;;;18.50;88.40;;;;;;5070457;28;20390;-60
2021/07/01 06:45:13;;;;;;;15.55;2.45;;;18.60;87.80;;;;;;5068456;28;20755;-61
2021/07/01 06:47:47;;;;;;;6.20;1.80;;;18.70;86.50;;;;;;5070106;28;20421;-61
2021/07/01 06:50:14;;;;;;;7.82;2.30;;;18.60;86.70;;;;;;5070076;28;20387;-61
2021/07/01 06:52:43;;;;;;;5.90;1.90;;;18.60;86.60;;;;;;5053279;28;20387;-61
2021/07/01 06:55:10;;;;;;;8.88;1.92;;;18.50;85.90;;;;;;5071245;28;20405;-61
2021/07/01 06:57:36;;;;;;;5.90;1.90;;;18.60;86.90;;;;;;5070659;28;20410;-61
2021/07/01 07:00:04;;;;;;;4.88;2.00;;;18.50;87.60;;;;;;5070364;28;20874;-60
2021/07/01 07:02:33;;;;;;;5.65;2.00;;;18.40;87.70;;;;;;5053374;28;20382;-60
2021/07/01 07:05:06;;;;;;;5.22;2.10;;;18.20;87.40;;;;;;5071089;28;20891;-59
2021/07/01 07:07:32;;;;;;;4.07;2.07;;;18.20;89.00;;;;;;5071082;28;20386;-60
2021/07/01 07:10:03;;;;;;;9.32;2.03;;;18.30;87.80;;;;;;5070975;28;20463;-61
2021/07/01 07:12:29;;;;;;;5.85;2.00;;;18.50;87.30;;;;;;5071034;28;20397;-59
2021/07/01 07:14:56;;;;;;;4.73;1.90;;;18.40;87.00;;;;;;5071209;28;20397;-60
2021/07/01 07:17:23;;;;;;;;;;;18.30;86.90;;;;;;5072003;28;20394;-61
2021/07/01 07:19:49;;;;;;;3.55;1.90;;;18.20;87.70;;;;;;5049936;28;20467;-61
2021/07/01 07:22:15;;;;;;;;;;;18.30;87.30;;;;;;5053120;28;20391;-60
2021/07/01 07:24:41;;;;;;;;;;;18.40;87.40;;;;;;5047907;28;20375;-61
2021/07/01 07:27:07;;;;;;;;;;;18.50;86.70;;;;;;5052233;28;20409;-60
2021/07/01 07:29:36;;;;;;;;;;;18.60;86.00;;;;;;5071991;28;20353;-61
2021/07/01 07:32:04;;;;;;;;;;;18.90;85.40;;;;;;5054991;28;19915;-61
2021/07/01 07:34:31;;;;;;;16.03;2.20;;;19.30;84.40;;;;;;5071485;28;19923;-60
2021/07/01 07:36:57;;;;;;;5.15;2.00;;;19.70;84.90;;;;;;5071245;28;20751;-61
2021/07/01 07:39:23;;;;;;;7.95;1.90;;;20.10;81.70;;;;;;5062816;28;20233;-61
2021/07/01 07:41:49;;;;;;;16.20;2.03;;;20.10;80.10;;;;;;5066492;28;20177;-61
2021/07/01 07:44:16;;;;;;;4.35;1.58;;;20.00;80.10;;;;;;5070075;28;20188;-61
2021/07/01 07:46:42;;;;;;;8.20;1.83;;;19.90;81.70;;;;;;5054011;28;20623;-61
2021/07/01 07:49:08;;;;;;;4.85;1.48;;;19.60;80.60;;;;;;5055048;28;20178;-61
2021/07/01 07:51:34;;;;;;;7.88;1.95;;;19.50;81.10;;;;;;5075794;28;20178;-60
2021/07/01 07:54:05;;;;;;;19.50;1.67;;;19.50;81.30;;;;;;5038164;28;20197;-61
2021/07/01 07:56:38;;;;;;;7.85;1.63;;;19.60;81.70;;;;;;5056952;28;20840;-61
2021/07/01 07:59:05;;;;;;;66.63;3.88;;;19.80;80.50;;;;;;5057244;28;20674;-61
2021/07/01 08:01:32;;;;;;;5.13;1.58;;;19.90;80.60;;;;;;5075646;28;20177;-63
2021/07/01 08:03:59;;;;;;;6.45;1.30;;;20.10;80.50;;;;;;5066331;28;20200;-61
2021/07/01 08:06:25;;;;;;;3.67;1.70;;;20.40;80.00;;;;;;5074493;28;20174;-63
2021/07/01 08:08:52;;;;;;;3.75;2.15;;;20.60;79.20;;;;;;5056883;28;20182;-61
2021/07/01 08:11:19;;;;;;;10.70;1.90;;;21.00;78.00;;;;;;5073814;28;20194;-61
2021/07/01 08:13:46;;;;;;;8.65;1.98;;;21.20;78.00;;;;;;5056902;28;20180;-63
2021/07/01 08:16:12;;;;;;;7.13;1.70;;;21.00;76.20;;;;;;5069649;28;20186;-59
2021/07/01 08:18:40;;;;;;;4.80;1.80;;;20.80;76.90;;;;;;5060027;28;21733;-61
2021/07/01 08:21:12;;;;;;;7.50;1.70;;;21.00;77.00;;;;;;5074400;28;20178;-61
2021/07/01 08:23:39;;;;;;;8.00;1.90;;;21.10;76.60;;;;;;5070338;28;20185;-61
2021/07/01 08:26:06;;;;;;;8.90;2.55;;;21.20;76.30;;;;;;5073789;28;20127;-62
2021/07/01 08:28:32;;;;;;;11.10;2.10;;;21.30;76.10;;;;;;5072858;28;20394;-61
2021/07/01 08:31:05;;;;;;;9.68;2.10;;;21.40;75.50;;;;;;5074958;28;20272;-61
2021/07/01 08:33:33;;;;;;;6.70;1.75;;;21.30;75.30;;;;;;5073075;28;20166;-61
2021/07/01 08:36:00;;;;;;;13.38;2.20;;;21.40;75.10;;;;;;5073661;28;20162;-63
2021/07/01 08:38:26;;;;;;;6.38;2.00;;;21.60;74.30;;;;;;5073836;28;20222;-65
2021/07/01 08:40:55;;;;;;;7.60;1.95;;;22.20;73.90;;;;;;5073211;28;20385;-63
2021/07/01 08:43:22;;;;;;;95.72;4.93;;;23.10;71.40;;;;;;5055853;28;20162;-63
2021/07/01 08:45:59;;;;;;;12.90;1.80;;;23.00;69.60;;;;;;5038990;28;20182;-62
2021/07/01 08:48:26;;;;;;;6.50;2.38;;;22.70;69.60;;;;;;5057271;28;20162;-61
2021/07/01 08:50:57;;;;;;;5.55;1.90;;;23.10;69.80;;;;;;5073352;28;20169;-61
2021/07/01 08:54:00;;;;;;;49.03;3.53;;;23.90;69.70;;;;;;5072822;28;20178;-62
2021/07/01 08:56:27;;;;;;;67.70;4.65;;;23.60;67.80;;;;;;5072220;28;20174;-62
2021/07/01 08:58:54;;;;;;;11.45;2.00;;;23.30;66.90;;;;;;5056589;28;20209;-63
2021/07/01 09:01:20;;;;;;;18.52;2.60;;;22.90;68.20;;;;;;5052748;28;20174;-63
2021/07/01 09:03:47;;;;;;;9.43;2.42;;;22.50;69.30;;;;;;5052549;28;20178;-64
2021/07/01 09:06:17;;;;;;;6.18;2.58;;;21.90;71.40;;;;;;5074099;28;20670;-63
2021/07/01 09:08:43;;;;;;;3.33;2.05;;;21.60;72.30;;;;;;5071311;28;20197;-64
2021/07/01 09:11:11;;;;;;;7.70;2.10;;;21.10;72.70;;;;;;5055717;28;20189;-63
2021/07/01 09:13:37;;;;;;;36.97;4.40;;;20.80;75.10;;;;;;5073478;28;20177;-62
2021/07/01 09:16:03;;;;;;;83.35;11.07;;;20.80;75.70;;;;;;5056099;28;20181;-63
2021/07/01 09:18:29;;;;;;;57.05;8.23;;;20.90;75.10;;;;;;5072239;28;20662;-63
2021/07/01 09:20:55;;;;;;;6.53;2.05;;;20.90;76.80;;;;;;5055848;28;20217;-63
2021/07/01 09:23:22;;;;;;;8.68;2.05;;;20.90;77.10;;;;;;5055151;28;20550;-62
2021/07/01 09:25:48;;;;;;;11.90;2.05;;;20.70;77.70;;;;;;5052807;28;20186;-62
2021/07/01 09:28:14;;;;;;;;;;;20.60;77.90;;;;;;5056187;28;20393;-62
2021/07/01 09:30:40;;;;;;;16.10;2.50;;;20.00;80.10;;;;;;5054107;28;20398;-62
2021/07/01 09:33:07;;;;;;;20.33;2.38;;;19.60;83.50;;;;;;5055141;28;20170;-62
2021/07/01 09:35:35;;;;;;;6.80;2.10;;;19.20;88.70;;;;;;5055635;28;20174;-62
2021/07/01 09:38:07;;;;;;;4.60;1.70;;;18.70;89.30;;;;;;5068502;28;20202;-62
2021/07/01 09:40:38;;;;;;;4.63;1.88;;;18.30;91.10;;;;;;5052501;28;20193;-63
2021/07/01 09:43:06;;;;;;;5.97;1.88;;;18.30;92.60;;;;;;5071148;28;20543;-62
2021/07/01 09:45:33;;;;;;;3.55;1.92;;;18.20;92.90;;;;;;5071944;28;20638;-63
2021/07/01 09:48:08;;;;;;;6.28;1.80;;;18.20;92.60;;;;;;5066076;28;20193;-63
2021/07/01 09:50:44;;;;;;;3.50;1.73;;;18.30;91.90;;;;;;5059040;28;20166;-63
2021/07/01 09:53:14;;;;;;;3.67;2.17;;;18.50;91.50;;;;;;5043946;28;20178;-63
2021/07/01 09:55:40;;;;;;;2.92;1.77;;;18.90;90.70;;;;;;5044244;28;20194;-63
2021/07/01 09:58:10;;;;;;;4.47;1.77;;;19.40;89.80;;;;;;5062956;28;20206;-63
2021/07/01 10:00:37;;;;;;;3.35;1.67;;;19.90;88.10;;;;;;5064406;28;20654;-62
2021/07/01 10:03:03;;;;;;;23.90;2.40;;;20.00;85.80;;;;;;5063654;28;20189;-62
2021/07/01 10:05:30;;;;;;;3.85;1.98;;;20.20;84.30;;;;;;5064775;28;20174;-63
2021/07/01 10:07:56;;;;;;;15.85;2.28;;;20.50;84.00;;;;;;5069883;28;20178;-63
2021/07/01 10:10:22;;;;;;;12.25;2.10;;;20.70;81.70;;;;;;5066065;28;20201;-63
2021/07/01 10:12:52;;;;;;;6.25;1.80;;;20.90;81.80;;;;;;5053729;28;20188;-62
2021/07/01 10:15:32;;;;;;;5.15;2.00;;;20.40;81.00;;;;;;5047702;28;20170;-62
2021/07/01 10:18:11;;;;;;;4.07;1.60;;;20.20;82.40;;;;;;5045499;28;20167;-63
2021/07/01 10:20:45;;;;;;;5.35;1.60;;;19.70;82.70;;;;;;5066371;28;20174;-62
2021/07/01 10:23:21;;;;;;;8.43;2.15;;;19.40;84.10;;;;;;5032228;28;20651;-63
2021/07/01 10:25:48;;;;;;;7.38;2.00;;;19.10;85.10;;;;;;5071259;28;20186;-65
2021/07/01 10:28:15;;;;;;;5.90;1.58;;;19.00;85.30;;;;;;5070994;28;20182;-65
2021/07/01 10:30:42;;;;;;;6.88;2.13;;;18.90;85.90;;;;;;5072212;28;20174;-65
2021/07/01 10:33:25;;;;;;;4.88;1.90;;;18.70;86.40;;;;;;5053348;28;20904;-63
2021/07/01 10:35:51;;;;;;;3.20;1.67;;;18.70;86.90;;;;;;5071250;28;20391;-66
2021/07/01 10:38:18;;;;;;;7.30;1.98;;;18.60;87.40;;;;;;5072271;28;20265;-64
2021/07/01 10:40:49;;;;;;;7.55;1.80;;;18.40;87.30;;;;;;5072901;28;20169;-65
2021/07/01 10:43:17;;;;;;;3.33;1.63;;;18.40;88.30;;;;;;5054663;28;20185;-63
2021/07/01 10:46:01;;;;;;;12.63;2.05;;;18.50;87.80;;;;;;5072706;28;20174;-64
2021/07/01 10:48:27;;;;;;;12.18;2.15;;;18.60;87.40;;;;;;5072291;28;20170;-66
2021/07/01 10:50:54;;;;;;;40.25;4.07;;;18.60;87.50;;;;;;5071675;28;20174;-66
2021/07/01 10:53:28;;;;;;;4.10;1.90;;;18.70;87.50;;;;;;5050343;28;20277;-65
2021/07/01 10:55:59;;;;;;;15.32;2.58;;;18.70;86.40;;;;;;5064820;28;20205;-65
2021/07/01 10:58:25;;;;;;;13.45;2.90;;;18.60;87.00;;;;;;5072386;28;20209;-65
2021/07/01 11:00:51;;;;;;;11.00;2.47;;;18.50;87.20;;;;;;5071997;28;20174;-64
2021/07/01 11:03:22;;;;;;;6.00;2.05;;;18.50;87.70;;;;;;5072179;28;20649;-64
2021/07/01 11:05:49;;;;;;;3.00;1.73;;;18.60;87.20;;;;;;5072092;28;20181;-64
2021/07/01 11:08:32;;;;;;;2.97;1.95;;;18.70;87.50;;;;;;5072061;28;20201;-64
2021/07/01 11:10:59;;;;;;;8.57;2.10;;;18.60;87.70;;;;;;5071821;28;20209;-62
2021/07/01 11:13:26;;;;;;;9.57;2.13;;;18.60;87.50;;;;;;5053526;28;20169;-63
2021/07/01 11:16:09;;;;;;;2.72;1.88;;;18.80;87.00;;;;;;5071751;28;20178;-63
2021/07/01 11:18:41;;;;;;;6.75;2.20;;;18.80;86.50;;;;;;5070712;28;20189;-64
2021/07/01 11:21:12;;;;;;;7.35;1.98;;;18.80;86.00;;;;;;5050995;28;20193;-62
2021/07/01 11:23:38;;;;;;;10.23;2.35;;;18.80;86.60;;;;;;5068761;28;20170;-63
2021/07/01 11:26:28;;;;;;;4.80;2.10;;;18.90;85.50;;;;;;5070786;28;20417;-64
2021/07/01 11:28:55;;;;;;;9.38;2.17;;;18.90;85.70;;;;;;5070815;28;20386;-73
2021/07/01 11:31:32;;;;;;;12.52;2.47;;;18.80;86.00;;;;;;5070700;28;20394;-70
2021/07/01 11:33:59;;;;;;;6.60;2.28;;;18.40;86.30;;;;;;5072264;28;20177;-72
2021/07/01 11:36:25;;;;;;;5.32;1.98;;;18.30;87.60;;;;;;5071406;28;20178;-75
2021/07/01 11:38:51;;;;;;;5.28;2.10;;;18.10;87.30;;;;;;5063696;28;20237;-71
2021/07/01 11:41:17;;;;;;;4.65;1.60;;;18.00;88.30;;;;;;5036633;28;20643;-73
2021/07/01 11:43:44;;;;;;;10.90;2.00;;;17.90;88.00;;;;;;5070198;28;20197;-76
2021/07/01 11:46:10;;;;;;;8.27;2.45;;;17.70;88.30;;;;;;5069192;28;20186;-75
2021/07/01 11:48:36;;;;;;;8.00;1.83;;;17.60;89.00;;;;;;5071474;28;20710;-74
2021/07/01 11:51:04;;;;;;;7.97;1.70;;;17.60;89.60;;;;;;5071310;28;20182;-74
2021/07/01 11:53:30;;;;;;;3.35;1.70;;;17.60;89.60;;;;;;5048736;28;20182;-77
2021/07/01 11:55:58;;;;;;;5.55;1.63;;;17.50;89.30;;;;;;5071307;28;20666;-75
2021/07/01 11:58:25;;;;;;;12.60;2.20;;;17.50;89.30;;;;;;5070705;28;20204;-75
2021/07/01 12:00:52;;;;;;;104.72;8.07;;;17.50;89.70;;;;;;5069418;28;20677;-73
2021/07/01 12:03:18;;;;;;;37.20;5.47;;;17.70;90.00;;;;;;5070386;28;20536;-75
2021/07/01 12:05:52;;;;;;;6.90;1.70;;;17.70;89.70;;;;;;5070740;28;20181;-73
2021/07/01 12:08:18;;;;;;;5.97;1.38;;;17.60;89.90;;;;;;5069691;28;20166;-72
2021/07/01 12:10:44;;;;;;;2.85;1.75;;;17.50;90.10;;;;;;5069612;28;20194;-77
2021/07/01 12:13:40;;;;;;;25.25;3.28;;;17.60;90.50;;;;;;5071125;28;20178;-73
2021/07/01 12:16:16;;;;;;;56.88;6.85;;;17.50;90.80;;;;;;5058202;28;20194;-74
2021/07/01 12:18:45;;;;;;;27.13;4.38;;;17.70;91.10;;;;;;5069535;28;20220;-77
2021/07/01 12:21:12;;;;;;;270.92;23.60;;;17.80;91.00;;;;;;5071475;28;20174;-75
2021/07/01 12:23:48;;;;;;;26.75;4.03;;;17.80;91.10;;;;;;5067407;28;20673;-74
2021/07/01 12:26:36;;;;;;;6.05;2.35;;;17.60;91.60;;;;;;5071726;28;20181;-74
2021/07/01 12:29:20;;;;;;;233.27;22.35;;;17.40;92.40;;;;;;5071431;28;20796;-78
2021/07/01 12:31:47;;;;;;;8.40;1.83;;;17.20;94.10;;;;;;5069240;28;20174;-74
2021/07/01 12:34:18;;;;;;;7.47;2.10;;;16.80;94.60;;;;;;5069448;28;20439;-74
2021/07/01 12:36:50;;;;;;;14.60;2.03;;;16.60;95.80;;;;;;5072492;28;20520;-75
2021/07/01 12:39:21;;;;;;;9.75;1.70;;;16.40;96.80;;;;;;5057562;28;20237;-76
2021/07/01 12:41:55;;;;;;;6.80;1.70;;;16.10;97.80;;;;;;5075664;28;20177;-74
2021/07/01 12:44:35;;;;;;;3.53;1.55;;;15.90;99.30;;;;;;5056218;28;20186;-78
2021/07/01 12:47:11;;;;;;;4.82;2.00;;;15.80;99.90;;;;;;5075133;28;20658;-77
2021/07/01 12:49:39;;;;;;;3.65;1.58;;;15.70;99.90;;;;;;5074735;28;20189;-76
2021/07/01 12:52:06;;;;;;;5.10;2.30;;;15.60;99.90;;;;;;5075268;28;20166;-79